sensor_id;sensor_type;location;lat;lon;timestamp;temperature;humidity
7666;DHT22;3875;46.562;4.898;2024-03-22T00:01:55;14.70;80.30
7666;DHT22;3875;46.562;4.898;2024-03-22T00:04:21;14.70;80.30
7666;DHT22;3875;46.562;4.898;2024-03-22T00:06:51;14.70;80.30
7666;DHT22;3875;46.562;4.898;2024-03-22T00:09:17;14.70;80.30
7666;DHT22;3875;46.562;4.898;2024-03-22T00:11:44;14.70;80.20
7666;DHT22;3875;46.562;4.898;2024-03-22T00:14:11;14.80;80.20
7666;DHT22;3875;46.562;4.898;2024-03-22T00:16:37;14.70;80.20
7666;DHT22;3875;46.562;4.898;2024-03-22T00:19:03;14.70;80.20
7666;DHT22;3875;46.562;4.898;2024-03-22T00:21:29;14.70;80.30
7666;DHT22;3875;46.562;4.898;2024-03-22T00:23:59;14.70;80.40
7666;DHT22;3875;46.562;4.898;2024-03-22T00:26:27;14.70;80.50
7666;DHT22;3875;46.562;4.898;2024-03-22T00:28:53;14.70;80.70
7666;DHT22;3875;46.562;4.898;2024-03-22T00:31:19;14.60;80.90
7666;DHT22;3875;46.562;4.898;2024-03-22T00:33:45;14.60;80.90
7666;DHT22;3875;46.562;4.898;2024-03-22T00:36:11;14.50;81.00
7666;DHT22;3875;46.562;4.898;2024-03-22T00:38:36;14.50;81.00
7666;DHT22;3875;46.562;4.898;2024-03-22T00:41:05;14.60;81.00
7666;DHT22;3875;46.562;4.898;2024-03-22T00:43:35;14.60;81.00
7666;DHT22;3875;46.562;4.898;2024-03-22T00:46:01;14.60;80.90
7666;DHT22;3875;46.562;4.898;2024-03-22T00:48:28;14.60;81.00
7666;DHT22;3875;46.562;4.898;2024-03-22T00:50:54;14.50;81.20
7666;DHT22;3875;46.562;4.898;2024-03-22T00:53:20;14.50;81.30
7666;DHT22;3875;46.562;4.898;2024-03-22T00:55:46;14.40;81.50
7666;DHT22;3875;46.562;4.898;2024-03-22T00:58:19;14.40;81.70
7666;DHT22;3875;46.562;4.898;2024-03-22T01:00:46;14.30;81.70
7666;DHT22;3875;46.562;4.898;2024-03-22T01:03:12;14.40;81.70
7666;DHT22;3875;46.562;4.898;2024-03-22T01:05:41;14.40;81.70
7666;DHT22;3875;46.562;4.898;2024-03-22T01:08:09;14.50;81.50
7666;DHT22;3875;46.562;4.898;2024-03-22T01:10:41;14.50;81.50
7666;DHT22;3875;46.562;4.898;2024-03-22T01:13:10;14.50;81.40
7666;DHT22;3875;46.562;4.898;2024-03-22T01:15:36;14.50;81.50
7666;DHT22;3875;46.562;4.898;2024-03-22T01:18:01;14.40;81.70
7666;DHT22;3875;46.562;4.898;2024-03-22T01:20:27;14.50;81.70
7666;DHT22;3875;46.562;4.898;2024-03-22T01:22:53;14.40;81.70
7666;DHT22;3875;46.562;4.898;2024-03-22T01:25:19;14.40;81.70
7666;DHT22;3875;46.562;4.898;2024-03-22T01:27:45;14.40;81.70
7666;DHT22;3875;46.562;4.898;2024-03-22T01:30:10;14.40;81.90
7666;DHT22;3875;46.562;4.898;2024-03-22T01:32:37;14.40;81.70
7666;DHT22;3875;46.562;4.898;2024-03-22T01:35:03;14.40;81.70
7666;DHT22;3875;46.562;4.898;2024-03-22T01:37:29;14.40;81.70
7666;DHT22;3875;46.562;4.898;2024-03-22T01:39:55;14.50;81.50
7666;DHT22;3875;46.562;4.898;2024-03-22T01:42:21;14.50;81.50
7666;DHT22;3875;46.562;4.898;2024-03-22T01:44:49;14.50;81.50
7666;DHT22;3875;46.562;4.898;2024-03-22T01:47:15;14.50;81.30
7666;DHT22;3875;46.562;4.898;2024-03-22T01:49:41;14.50;81.30
7666;DHT22;3875;46.562;4.898;2024-03-22T01:52:07;14.50;81.40
7666;DHT22;3875;46.562;4.898;2024-03-22T01:54:33;14.50;81.30
7666;DHT22;3875;46.562;4.898;2024-03-22T01:56:59;14.50;81.30
7666;DHT22;3875;46.562;4.898;2024-03-22T01:59:26;14.50;81.30
7666;DHT22;3875;46.562;4.898;2024-03-22T02:01:52;14.50;81.30
7666;DHT22;3875;46.562;4.898;2024-03-22T02:04:18;14.50;81.50
7666;DHT22;3875;46.562;4.898;2024-03-22T02:06:43;14.50;81.50
7666;DHT22;3875;46.562;4.898;2024-03-22T02:09:09;14.50;81.50
7666;DHT22;3875;46.562;4.898;2024-03-22T02:11:36;14.50;81.50
7666;DHT22;3875;46.562;4.898;2024-03-22T02:14:03;14.40;81.70
7666;DHT22;3875;46.562;4.898;2024-03-22T02:16:29;14.40;81.70
7666;DHT22;3875;46.562;4.898;2024-03-22T02:18:55;14.40;81.70
7666;DHT22;3875;46.562;4.898;2024-03-22T02:21:20;14.40;81.70
7666;DHT22;3875;46.562;4.898;2024-03-22T02:23:46;14.30;81.70
7666;DHT22;3875;46.562;4.898;2024-03-22T02:26:12;14.30;82.00
7666;DHT22;3875;46.562;4.898;2024-03-22T02:28:37;14.30;82.00
7666;DHT22;3875;46.562;4.898;2024-03-22T02:31:03;14.30;82.20
7666;DHT22;3875;46.562;4.898;2024-03-22T02:33:29;14.30;82.40
7666;DHT22;3875;46.562;4.898;2024-03-22T02:35:55;14.30;82.40
7666;DHT22;3875;46.562;4.898;2024-03-22T02:38:22;14.20;82.50
7666;DHT22;3875;46.562;4.898;2024-03-22T02:40:50;14.20;82.40
7666;DHT22;3875;46.562;4.898;2024-03-22T02:43:16;14.20;82.40
7666;DHT22;3875;46.562;4.898;2024-03-22T02:45:44;14.20;82.50
7666;DHT22;3875;46.562;4.898;2024-03-22T02:48:10;14.20;82.50
7666;DHT22;3875;46.562;4.898;2024-03-22T02:50:37;14.20;82.40
7666;DHT22;3875;46.562;4.898;2024-03-22T02:53:03;14.20;82.40
7666;DHT22;3875;46.562;4.898;2024-03-22T02:55:29;14.20;82.50
7666;DHT22;3875;46.562;4.898;2024-03-22T02:57:56;14.20;82.50
7666;DHT22;3875;46.562;4.898;2024-03-22T03:00:22;14.20;82.60
7666;DHT22;3875;46.562;4.898;2024-03-22T03:02:49;14.10;82.80
7666;DHT22;3875;46.562;4.898;2024-03-22T03:05:15;14.10;82.80
7666;DHT22;3875;46.562;4.898;2024-03-22T03:07:40;14.10;82.90
7666;DHT22;3875;46.562;4.898;2024-03-22T03:10:06;14.10;82.80
7666;DHT22;3875;46.562;4.898;2024-03-22T03:12:32;14.10;82.80
7666;DHT22;3875;46.562;4.898;2024-03-22T03:14:58;14.10;82.80
7666;DHT22;3875;46.562;4.898;2024-03-22T03:17:24;14.00;82.90
7666;DHT22;3875;46.562;4.898;2024-03-22T03:19:49;14.00;82.90
7666;DHT22;3875;46.562;4.898;2024-03-22T03:22:15;14.00;83.00
7666;DHT22;3875;46.562;4.898;2024-03-22T03:24:41;14.00;83.20
7666;DHT22;3875;46.562;4.898;2024-03-22T03:27:06;14.00;83.20
7666;DHT22;3875;46.562;4.898;2024-03-22T03:29:32;13.90;83.20
7666;DHT22;3875;46.562;4.898;2024-03-22T03:31:58;13.90;83.00
7666;DHT22;3875;46.562;4.898;2024-03-22T03:34:24;13.90;83.00
7666;DHT22;3875;46.562;4.898;2024-03-22T03:36:49;13.90;83.30
7666;DHT22;3875;46.562;4.898;2024-03-22T03:39:15;13.90;83.20
7666;DHT22;3875;46.562;4.898;2024-03-22T03:41:40;13.90;83.20
7666;DHT22;3875;46.562;4.898;2024-03-22T03:44:06;13.90;83.00
7666;DHT22;3875;46.562;4.898;2024-03-22T03:46:33;13.90;83.00
7666;DHT22;3875;46.562;4.898;2024-03-22T03:48:58;13.90;82.90
7666;DHT22;3875;46.562;4.898;2024-03-22T03:51:24;13.90;82.90
7666;DHT22;3875;46.562;4.898;2024-03-22T03:53:50;13.90;82.90
7666;DHT22;3875;46.562;4.898;2024-03-22T03:56:15;13.90;82.80
7666;DHT22;3875;46.562;4.898;2024-03-22T03:58:41;13.90;83.00
7666;DHT22;3875;46.562;4.898;2024-03-22T04:01:07;13.80;83.00
7666;DHT22;3875;46.562;4.898;2024-03-22T04:03:33;13.80;82.90
7666;DHT22;3875;46.562;4.898;2024-03-22T04:05:59;13.80;83.00
7666;DHT22;3875;46.562;4.898;2024-03-22T04:08:28;13.80;83.10
7666;DHT22;3875;46.562;4.898;2024-03-22T04:10:56;13.80;83.00
7666;DHT22;3875;46.562;4.898;2024-03-22T04:13:26;13.80;82.90
7666;DHT22;3875;46.562;4.898;2024-03-22T04:15:52;13.80;83.00
7666;DHT22;3875;46.562;4.898;2024-03-22T04:18:18;13.80;82.80
7666;DHT22;3875;46.562;4.898;2024-03-22T04:20:56;13.80;83.10
7666;DHT22;3875;46.562;4.898;2024-03-22T04:23:23;13.70;83.30
7666;DHT22;3875;46.562;4.898;2024-03-22T04:25:56;13.70;83.30
7666;DHT22;3875;46.562;4.898;2024-03-22T04:28:23;13.70;83.30
7666;DHT22;3875;46.562;4.898;2024-03-22T04:31:03;13.70;83.40
7666;DHT22;3875;46.562;4.898;2024-03-22T04:33:30;13.70;83.40
7666;DHT22;3875;46.562;4.898;2024-03-22T04:35:56;13.70;83.50
7666;DHT22;3875;46.562;4.898;2024-03-22T04:38:23;13.60;83.50
7666;DHT22;3875;46.562;4.898;2024-03-22T04:40:49;13.60;83.50
7666;DHT22;3875;46.562;4.898;2024-03-22T04:43:15;13.60;83.50
7666;DHT22;3875;46.562;4.898;2024-03-22T04:45:43;13.60;83.50
7666;DHT22;3875;46.562;4.898;2024-03-22T04:48:08;13.60;83.50
7666;DHT22;3875;46.562;4.898;2024-03-22T04:50:34;13.60;83.60
7666;DHT22;3875;46.562;4.898;2024-03-22T04:53:01;13.50;83.60
7666;DHT22;3875;46.562;4.898;2024-03-22T04:55:26;13.50;83.60
7666;DHT22;3875;46.562;4.898;2024-03-22T04:57:52;13.50;83.70
7666;DHT22;3875;46.562;4.898;2024-03-22T05:00:19;13.50;83.80
7666;DHT22;3875;46.562;4.898;2024-03-22T05:02:44;13.50;83.80
7666;DHT22;3875;46.562;4.898;2024-03-22T05:05:11;13.40;83.90
7666;DHT22;3875;46.562;4.898;2024-03-22T05:07:37;13.40;83.90
7666;DHT22;3875;46.562;4.898;2024-03-22T05:10:04;13.40;84.00
7666;DHT22;3875;46.562;4.898;2024-03-22T05:12:29;13.40;84.00
7666;DHT22;3875;46.562;4.898;2024-03-22T05:14:55;13.40;84.00
7666;DHT22;3875;46.562;4.898;2024-03-22T05:17:21;13.40;84.10
7666;DHT22;3875;46.562;4.898;2024-03-22T05:19:47;13.40;84.10
7666;DHT22;3875;46.562;4.898;2024-03-22T05:22:12;13.30;84.20
7666;DHT22;3875;46.562;4.898;2024-03-22T05:24:38;13.30;84.10
7666;DHT22;3875;46.562;4.898;2024-03-22T05:27:04;13.40;84.10
7666;DHT22;3875;46.562;4.898;2024-03-22T05:29:29;13.40;84.10
7666;DHT22;3875;46.562;4.898;2024-03-22T05:31:55;13.40;84.10
7666;DHT22;3875;46.562;4.898;2024-03-22T05:34:21;13.40;83.90
7666;DHT22;3875;46.562;4.898;2024-03-22T05:36:46;13.40;83.90
7666;DHT22;3875;46.562;4.898;2024-03-22T05:39:12;13.40;84.00
7666;DHT22;3875;46.562;4.898;2024-03-22T05:41:38;13.40;84.00
7666;DHT22;3875;46.562;4.898;2024-03-22T05:44:04;13.40;84.10
7666;DHT22;3875;46.562;4.898;2024-03-22T05:46:30;13.30;84.20
7666;DHT22;3875;46.562;4.898;2024-03-22T05:48:57;13.40;84.10
7666;DHT22;3875;46.562;4.898;2024-03-22T05:51:26;13.40;84.10
7666;DHT22;3875;46.562;4.898;2024-03-22T05:53:52;13.40;83.90
7666;DHT22;3875;46.562;4.898;2024-03-22T05:56:18;13.50;83.80
7666;DHT22;3875;46.562;4.898;2024-03-22T05:58:44;13.50;83.80
7666;DHT22;3875;46.562;4.898;2024-03-22T06:01:12;13.50;83.70
7666;DHT22;3875;46.562;4.898;2024-03-22T06:03:38;13.50;83.70
7666;DHT22;3875;46.562;4.898;2024-03-22T06:06:04;13.50;83.70
7666;DHT22;3875;46.562;4.898;2024-03-22T06:08:30;13.50;83.70
7666;DHT22;3875;46.562;4.898;2024-03-22T06:10:57;13.60;83.70
7666;DHT22;3875;46.562;4.898;2024-03-22T06:13:23;13.70;83.70
7666;DHT22;3875;46.562;4.898;2024-03-22T06:15:49;13.70;83.70
7666;DHT22;3875;46.562;4.898;2024-03-22T06:18:15;13.70;83.70
7666;DHT22;3875;46.562;4.898;2024-03-22T06:20:41;13.70;83.80
7666;DHT22;3875;46.562;4.898;2024-03-22T06:23:08;13.80;83.70
7666;DHT22;3875;46.562;4.898;2024-03-22T06:25:34;13.80;83.70
7666;DHT22;3875;46.562;4.898;2024-03-22T06:28:00;13.90;83.60
7666;DHT22;3875;46.562;4.898;2024-03-22T06:30:25;13.90;83.60
7666;DHT22;3875;46.562;4.898;2024-03-22T06:32:51;14.00;83.40
7666;DHT22;3875;46.562;4.898;2024-03-22T06:35:17;14.10;83.20
7666;DHT22;3875;46.562;4.898;2024-03-22T06:37:43;14.20;83.10
7666;DHT22;3875;46.562;4.898;2024-03-22T06:40:09;14.40;82.90
7666;DHT22;3875;46.562;4.898;2024-03-22T06:42:35;14.50;82.70
7666;DHT22;3875;46.562;4.898;2024-03-22T06:45:02;14.60;82.60
7666;DHT22;3875;46.562;4.898;2024-03-22T06:47:27;14.70;82.20
7666;DHT22;3875;46.562;4.898;2024-03-22T06:49:53;14.80;81.90
7666;DHT22;3875;46.562;4.898;2024-03-22T06:52:19;14.90;81.80
7666;DHT22;3875;46.562;4.898;2024-03-22T06:54:45;15.00;81.50
7666;DHT22;3875;46.562;4.898;2024-03-22T06:57:11;15.10;81.40
7666;DHT22;3875;46.562;4.898;2024-03-22T06:59:37;15.20;81.20
7666;DHT22;3875;46.562;4.898;2024-03-22T07:02:03;15.40;81.00
7666;DHT22;3875;46.562;4.898;2024-03-22T07:04:29;15.70;80.80
7666;DHT22;3875;46.562;4.898;2024-03-22T07:06:55;15.90;80.20
7666;DHT22;3875;46.562;4.898;2024-03-22T07:09:21;16.10;79.80
7666;DHT22;3875;46.562;4.898;2024-03-22T07:11:46;16.20;79.40
7666;DHT22;3875;46.562;4.898;2024-03-22T07:14:12;16.30;79.20
7666;DHT22;3875;46.562;4.898;2024-03-22T07:16:38;16.50;79.30
7666;DHT22;3875;46.562;4.898;2024-03-22T07:19:03;16.70;79.10
7666;DHT22;3875;46.562;4.898;2024-03-22T07:21:29;16.90;78.60
7666;DHT22;3875;46.562;4.898;2024-03-22T07:23:56;17.10;78.50
7666;DHT22;3875;46.562;4.898;2024-03-22T07:26:22;17.20;77.90
7666;DHT22;3875;46.562;4.898;2024-03-22T07:28:47;17.30;77.70
7666;DHT22;3875;46.562;4.898;2024-03-22T07:31:13;17.50;77.50
7666;DHT22;3875;46.562;4.898;2024-03-22T07:33:39;17.70;77.50
7666;DHT22;3875;46.562;4.898;2024-03-22T07:36:06;17.80;77.30
7666;DHT22;3875;46.562;4.898;2024-03-22T07:38:32;17.90;76.70
7666;DHT22;3875;46.562;4.898;2024-03-22T07:40:57;17.90;75.90
7666;DHT22;3875;46.562;4.898;2024-03-22T07:43:23;18.00;76.40
7666;DHT22;3875;46.562;4.898;2024-03-22T07:45:49;18.10;76.80
7666;DHT22;3875;46.562;4.898;2024-03-22T07:48:15;18.20;76.90
7666;DHT22;3875;46.562;4.898;2024-03-22T07:50:41;18.30;77.00
7666;DHT22;3875;46.562;4.898;2024-03-22T07:53:06;18.40;76.90
7666;DHT22;3875;46.562;4.898;2024-03-22T07:55:32;18.50;76.70
7666;DHT22;3875;46.562;4.898;2024-03-22T07:57:58;18.50;76.40
7666;DHT22;3875;46.562;4.898;2024-03-22T08:00:24;18.60;76.50
7666;DHT22;3875;46.562;4.898;2024-03-22T08:02:52;18.60;76.20
7666;DHT22;3875;46.562;4.898;2024-03-22T08:05:18;18.60;76.10
7666;DHT22;3875;46.562;4.898;2024-03-22T08:07:44;18.60;76.10
7666;DHT22;3875;46.562;4.898;2024-03-22T08:10:10;18.70;75.90
7666;DHT22;3875;46.562;4.898;2024-03-22T08:12:36;18.80;75.90
7666;DHT22;3875;46.562;4.898;2024-03-22T08:15:02;18.80;75.70
7666;DHT22;3875;46.562;4.898;2024-03-22T08:17:28;18.80;75.50
7666;DHT22;3875;46.562;4.898;2024-03-22T08:19:54;19.00;75.60
7666;DHT22;3875;46.562;4.898;2024-03-22T08:22:20;19.10;75.30
7666;DHT22;3875;46.562;4.898;2024-03-22T08:24:45;19.30;74.70
7666;DHT22;3875;46.562;4.898;2024-03-22T08:27:11;19.30;74.40
7666;DHT22;3875;46.562;4.898;2024-03-22T08:29:37;19.40;74.50
7666;DHT22;3875;46.562;4.898;2024-03-22T08:32:04;19.50;74.40
7666;DHT22;3875;46.562;4.898;2024-03-22T08:34:31;19.60;74.60
7666;DHT22;3875;46.562;4.898;2024-03-22T08:36:58;19.70;73.90
7666;DHT22;3875;46.562;4.898;2024-03-22T08:39:24;19.80;73.80
7666;DHT22;3875;46.562;4.898;2024-03-22T08:41:50;19.90;73.80
7666;DHT22;3875;46.562;4.898;2024-03-22T08:44:18;19.90;73.20
7666;DHT22;3875;46.562;4.898;2024-03-22T08:46:43;19.90;73.40
7666;DHT22;3875;46.562;4.898;2024-03-22T08:49:09;20.00;73.50
7666;DHT22;3875;46.562;4.898;2024-03-22T08:51:34;20.00;73.40
7666;DHT22;3875;46.562;4.898;2024-03-22T08:54:00;20.10;73.30
7666;DHT22;3875;46.562;4.898;2024-03-22T08:56:26;20.10;73.40
7666;DHT22;3875;46.562;4.898;2024-03-22T08:58:52;20.40;73.40
7666;DHT22;3875;46.562;4.898;2024-03-22T09:01:18;20.60;73.00
7666;DHT22;3875;46.562;4.898;2024-03-22T09:03:44;20.70;72.40
7666;DHT22;3875;46.562;4.898;2024-03-22T09:06:12;20.90;72.60
7666;DHT22;3875;46.562;4.898;2024-03-22T09:08:38;21.00;72.30
7666;DHT22;3875;46.562;4.898;2024-03-22T09:11:04;21.00;71.70
7666;DHT22;3875;46.562;4.898;2024-03-22T09:13:30;21.00;71.20
7666;DHT22;3875;46.562;4.898;2024-03-22T09:15:59;21.00;71.50
7666;DHT22;3875;46.562;4.898;2024-03-22T09:18:26;21.10;71.50
7666;DHT22;3875;46.562;4.898;2024-03-22T09:20:54;21.20;71.50
7666;DHT22;3875;46.562;4.898;2024-03-22T09:23:21;21.30;71.10
7666;DHT22;3875;46.562;4.898;2024-03-22T09:25:47;21.30;71.00
7666;DHT22;3875;46.562;4.898;2024-03-22T09:28:13;21.50;71.00
7666;DHT22;3875;46.562;4.898;2024-03-22T09:30:40;21.70;70.60
7666;DHT22;3875;46.562;4.898;2024-03-22T09:33:06;21.90;69.90
7666;DHT22;3875;46.562;4.898;2024-03-22T09:35:36;22.10;69.30
7666;DHT22;3875;46.562;4.898;2024-03-22T09:38:02;22.10;68.70
7666;DHT22;3875;46.562;4.898;2024-03-22T09:40:28;22.20;68.70
7666;DHT22;3875;46.562;4.898;2024-03-22T09:42:59;22.40;68.40
7666;DHT22;3875;46.562;4.898;2024-03-22T09:45:28;22.50;67.50
7666;DHT22;3875;46.562;4.898;2024-03-22T09:47:56;22.60;66.80
7666;DHT22;3875;46.562;4.898;2024-03-22T09:50:22;22.70;66.60
7666;DHT22;3875;46.562;4.898;2024-03-22T09:52:48;22.80;66.40
7666;DHT22;3875;46.562;4.898;2024-03-22T09:55:16;23.00;67.50
7666;DHT22;3875;46.562;4.898;2024-03-22T09:57:42;23.10;67.10
7666;DHT22;3875;46.562;4.898;2024-03-22T10:00:10;23.20;66.10
7666;DHT22;3875;46.562;4.898;2024-03-22T10:02:40;23.20;66.40
7666;DHT22;3875;46.562;4.898;2024-03-22T10:05:06;23.20;65.90
7666;DHT22;3875;46.562;4.898;2024-03-22T10:07:40;23.20;65.80
7666;DHT22;3875;46.562;4.898;2024-03-22T10:10:06;23.10;65.70
7666;DHT22;3875;46.562;4.898;2024-03-22T10:12:33;23.10;65.70
7666;DHT22;3875;46.562;4.898;2024-03-22T10:14:58;23.10;65.90
7666;DHT22;3875;46.562;4.898;2024-03-22T10:17:27;23.10;66.90
7666;DHT22;3875;46.562;4.898;2024-03-22T10:19:54;23.20;66.40
7666;DHT22;3875;46.562;4.898;2024-03-22T10:22:22;23.20;66.00
7666;DHT22;3875;46.562;4.898;2024-03-22T10:24:50;23.20;66.10
7666;DHT22;3875;46.562;4.898;2024-03-22T10:27:16;23.20;65.00
7666;DHT22;3875;46.562;4.898;2024-03-22T10:29:43;23.00;65.30
7666;DHT22;3875;46.562;4.898;2024-03-22T10:32:10;23.00;65.80
7666;DHT22;3875;46.562;4.898;2024-03-22T10:34:38;23.00;66.20
7666;DHT22;3875;46.562;4.898;2024-03-22T10:37:05;23.10;66.00
7666;DHT22;3875;46.562;4.898;2024-03-22T10:39:32;23.10;65.80
7666;DHT22;3875;46.562;4.898;2024-03-22T10:41:58;23.10;66.50
7666;DHT22;3875;46.562;4.898;2024-03-22T10:44:24;23.20;65.80
7666;DHT22;3875;46.562;4.898;2024-03-22T10:46:54;23.40;65.60
7666;DHT22;3875;46.562;4.898;2024-03-22T10:49:21;23.60;66.00
7666;DHT22;3875;46.562;4.898;2024-03-22T10:51:59;23.80;65.10
7666;DHT22;3875;46.562;4.898;2024-03-22T10:54:33;23.90;65.10
7666;DHT22;3875;46.562;4.898;2024-03-22T10:57:00;24.00;64.60
7666;DHT22;3875;46.562;4.898;2024-03-22T10:59:26;24.10;65.10
7666;DHT22;3875;46.562;4.898;2024-03-22T11:01:52;24.10;64.80
7666;DHT22;3875;46.562;4.898;2024-03-22T11:04:22;24.10;64.00
7666;DHT22;3875;46.562;4.898;2024-03-22T11:06:52;24.20;64.50
7666;DHT22;3875;46.562;4.898;2024-03-22T11:09:22;24.30;64.10
7666;DHT22;3875;46.562;4.898;2024-03-22T11:11:49;24.50;64.80
7666;DHT22;3875;46.562;4.898;2024-03-22T11:14:16;24.70;64.00
7666;DHT22;3875;46.562;4.898;2024-03-22T11:16:43;24.80;62.20
7666;DHT22;3875;46.562;4.898;2024-03-22T11:19:10;24.70;62.20
7666;DHT22;3875;46.562;4.898;2024-03-22T11:21:35;24.70;63.70
7666;DHT22;3875;46.562;4.898;2024-03-22T11:24:04;25.00;63.60
7666;DHT22;3875;46.562;4.898;2024-03-22T11:26:30;25.30;63.30
7666;DHT22;3875;46.562;4.898;2024-03-22T11:28:56;25.40;63.30
7666;DHT22;3875;46.562;4.898;2024-03-22T11:31:22;25.60;62.60
7666;DHT22;3875;46.562;4.898;2024-03-22T11:33:56;25.70;61.60
7666;DHT22;3875;46.562;4.898;2024-03-22T11:36:22;25.70;62.10
7666;DHT22;3875;46.562;4.898;2024-03-22T11:38:49;25.70;62.80
7666;DHT22;3875;46.562;4.898;2024-03-22T11:41:29;25.80;62.70
7666;DHT22;3875;46.562;4.898;2024-03-22T11:43:56;25.90;62.90
7666;DHT22;3875;46.562;4.898;2024-03-22T11:46:24;26.00;61.60
7666;DHT22;3875;46.562;4.898;2024-03-22T11:48:53;26.00;61.40
7666;DHT22;3875;46.562;4.898;2024-03-22T11:51:20;26.10;61.70
7666;DHT22;3875;46.562;4.898;2024-03-22T11:53:50;26.10;61.70
7666;DHT22;3875;46.562;4.898;2024-03-22T11:56:18;26.10;60.60
7666;DHT22;3875;46.562;4.898;2024-03-22T11:58:46;26.10;60.50
7666;DHT22;3875;46.562;4.898;2024-03-22T12:01:13;26.10;60.60
7666;DHT22;3875;46.562;4.898;2024-03-22T12:03:39;26.10;61.50
7666;DHT22;3875;46.562;4.898;2024-03-22T12:06:06;26.10;60.20
7666;DHT22;3875;46.562;4.898;2024-03-22T12:08:31;26.10;60.80
7666;DHT22;3875;46.562;4.898;2024-03-22T12:10:57;26.20;60.10
7666;DHT22;3875;46.562;4.898;2024-03-22T12:13:23;26.20;60.10
7666;DHT22;3875;46.562;4.898;2024-03-22T12:15:48;26.10;59.70
7666;DHT22;3875;46.562;4.898;2024-03-22T12:18:14;25.80;59.20
7666;DHT22;3875;46.562;4.898;2024-03-22T12:20:40;25.70;60.80
7666;DHT22;3875;46.562;4.898;2024-03-22T12:23:05;25.70;61.00
7666;DHT22;3875;46.562;4.898;2024-03-22T12:25:31;25.90;61.30
7666;DHT22;3875;46.562;4.898;2024-03-22T12:27:57;26.00;61.70
7666;DHT22;3875;46.562;4.898;2024-03-22T12:30:22;26.10;60.80
7666;DHT22;3875;46.562;4.898;2024-03-22T12:32:48;26.20;59.70
7666;DHT22;3875;46.562;4.898;2024-03-22T12:35:14;26.10;58.80
7666;DHT22;3875;46.562;4.898;2024-03-22T12:37:40;26.10;59.80
7666;DHT22;3875;46.562;4.898;2024-03-22T12:40:06;26.10;58.80
7666;DHT22;3875;46.562;4.898;2024-03-22T12:42:34;26.10;56.90
7666;DHT22;3875;46.562;4.898;2024-03-22T12:44:59;26.10;57.70
7666;DHT22;3875;46.562;4.898;2024-03-22T12:47:25;26.10;57.40
7666;DHT22;3875;46.562;4.898;2024-03-22T12:49:51;26.10;58.30
7666;DHT22;3875;46.562;4.898;2024-03-22T12:52:16;26.10;56.90
7666;DHT22;3875;46.562;4.898;2024-03-22T12:54:42;25.90;56.00
7666;DHT22;3875;46.562;4.898;2024-03-22T12:57:08;25.90;56.30
7666;DHT22;3875;46.562;4.898;2024-03-22T12:59:33;25.80;57.00
7666;DHT22;3875;46.562;4.898;2024-03-22T13:01:59;25.70;56.30
7666;DHT22;3875;46.562;4.898;2024-03-22T13:04:27;25.60;56.10
7666;DHT22;3875;46.562;4.898;2024-03-22T13:06:52;25.80;57.40
7666;DHT22;3875;46.562;4.898;2024-03-22T13:09:18;25.80;56.00
7666;DHT22;3875;46.562;4.898;2024-03-22T13:11:47;25.80;56.70
7666;DHT22;3875;46.562;4.898;2024-03-22T13:14:14;25.90;56.80
7666;DHT22;3875;46.562;4.898;2024-03-22T13:16:40;25.90;56.90
7666;DHT22;3875;46.562;4.898;2024-03-22T13:19:08;25.90;56.70
7666;DHT22;3875;46.562;4.898;2024-03-22T13:21:38;25.80;57.30
7666;DHT22;3875;46.562;4.898;2024-03-22T13:24:03;25.80;57.10
7666;DHT22;3875;46.562;4.898;2024-03-22T13:26:29;25.90;57.00
7666;DHT22;3875;46.562;4.898;2024-03-22T13:28:55;25.90;57.40
7666;DHT22;3875;46.562;4.898;2024-03-22T13:31:21;26.00;57.30
7666;DHT22;3875;46.562;4.898;2024-03-22T13:33:47;26.00;57.40
7666;DHT22;3875;46.562;4.898;2024-03-22T13:36:13;25.80;56.00
7666;DHT22;3875;46.562;4.898;2024-03-22T13:38:38;25.60;56.90
7666;DHT22;3875;46.562;4.898;2024-03-22T13:41:04;25.30;58.10
7666;DHT22;3875;46.562;4.898;2024-03-22T13:43:31;25.40;58.90
7666;DHT22;3875;46.562;4.898;2024-03-22T13:45:57;25.60;58.80
7666;DHT22;3875;46.562;4.898;2024-03-22T13:48:24;25.60;58.10
7666;DHT22;3875;46.562;4.898;2024-03-22T13:50:55;25.70;58.20
7666;DHT22;3875;46.562;4.898;2024-03-22T13:53:21;25.40;57.10
7666;DHT22;3875;46.562;4.898;2024-03-22T13:55:52;25.00;57.70
7666;DHT22;3875;46.562;4.898;2024-03-22T13:58:18;24.90;59.20
7666;DHT22;3875;46.562;4.898;2024-03-22T14:00:44;25.10;59.20
7666;DHT22;3875;46.562;4.898;2024-03-22T14:03:13;25.20;58.50
7666;DHT22;3875;46.562;4.898;2024-03-22T14:05:39;25.30;59.50
7666;DHT22;3875;46.562;4.898;2024-03-22T14:08:05;25.40;59.30
7666;DHT22;3875;46.562;4.898;2024-03-22T14:10:31;25.40;57.60
7666;DHT22;3875;46.562;4.898;2024-03-22T14:13:03;25.20;57.60
7666;DHT22;3875;46.562;4.898;2024-03-22T14:15:29;24.90;57.50
7666;DHT22;3875;46.562;4.898;2024-03-22T14:17:57;24.90;59.10
7666;DHT22;3875;46.562;4.898;2024-03-22T14:20:24;25.00;58.00
7666;DHT22;3875;46.562;4.898;2024-03-22T14:22:50;25.10;59.10
7666;DHT22;3875;46.562;4.898;2024-03-22T14:25:17;25.20;58.80
7666;DHT22;3875;46.562;4.898;2024-03-22T14:27:43;25.30;58.60
7666;DHT22;3875;46.562;4.898;2024-03-22T14:30:12;25.00;56.50
7666;DHT22;3875;46.562;4.898;2024-03-22T14:32:39;25.00;59.30
7666;DHT22;3875;46.562;4.898;2024-03-22T14:35:09;25.20;58.00
7666;DHT22;3875;46.562;4.898;2024-03-22T14:37:38;25.30;59.10
7666;DHT22;3875;46.562;4.898;2024-03-22T14:40:14;25.50;59.40
7666;DHT22;3875;46.562;4.898;2024-03-22T14:42:42;25.40;56.50
7666;DHT22;3875;46.562;4.898;2024-03-22T14:45:09;25.00;56.70
7666;DHT22;3875;46.562;4.898;2024-03-22T14:47:35;24.80;58.30
7666;DHT22;3875;46.562;4.898;2024-03-22T14:50:01;24.70;59.10
7666;DHT22;3875;46.562;4.898;2024-03-22T14:52:27;24.90;59.50
7666;DHT22;3875;46.562;4.898;2024-03-22T14:54:53;25.20;59.10
7666;DHT22;3875;46.562;4.898;2024-03-22T14:57:19;25.50;59.10
7666;DHT22;3875;46.562;4.898;2024-03-22T14:59:45;25.60;58.20
7666;DHT22;3875;46.562;4.898;2024-03-22T15:02:13;25.50;56.30
7666;DHT22;3875;46.562;4.898;2024-03-22T15:04:39;25.30;57.50
7666;DHT22;3875;46.562;4.898;2024-03-22T15:07:05;25.10;56.70
7666;DHT22;3875;46.562;4.898;2024-03-22T15:09:31;24.80;57.20
7666;DHT22;3875;46.562;4.898;2024-03-22T15:11:57;24.50;58.40
7666;DHT22;3875;46.562;4.898;2024-03-22T15:14:25;24.70;59.40
7666;DHT22;3875;46.562;4.898;2024-03-22T15:17:00;25.00;59.50
7666;DHT22;3875;46.562;4.898;2024-03-22T15:19:26;25.10;58.00
7666;DHT22;3875;46.562;4.898;2024-03-22T15:21:51;25.30;59.20
7666;DHT22;3875;46.562;4.898;2024-03-22T15:24:17;25.30;58.00
7666;DHT22;3875;46.562;4.898;2024-03-22T15:26:43;25.50;58.70
7666;DHT22;3875;46.562;4.898;2024-03-22T15:29:09;25.50;57.90
7666;DHT22;3875;46.562;4.898;2024-03-22T15:31:35;25.30;57.40
7666;DHT22;3875;46.562;4.898;2024-03-22T15:34:01;25.10;58.20
7666;DHT22;3875;46.562;4.898;2024-03-22T15:36:26;25.10;58.60
7666;DHT22;3875;46.562;4.898;2024-03-22T15:38:52;25.20;58.80
7666;DHT22;3875;46.562;4.898;2024-03-22T15:41:18;25.30;59.10
7666;DHT22;3875;46.562;4.898;2024-03-22T15:43:45;25.50;58.60
7666;DHT22;3875;46.562;4.898;2024-03-22T15:46:11;25.70;59.00
7666;DHT22;3875;46.562;4.898;2024-03-22T15:48:37;25.70;58.20
7666;DHT22;3875;46.562;4.898;2024-03-22T15:51:03;25.80;57.80
7666;DHT22;3875;46.562;4.898;2024-03-22T15:53:28;25.80;58.50
7666;DHT22;3875;46.562;4.898;2024-03-22T15:55:54;26.00;58.20
7666;DHT22;3875;46.562;4.898;2024-03-22T15:58:20;26.20;57.50